createdAt,value
2018-09-19T00:00:40.401Z,90.45
2018-09-19T00:01:40.465Z,91.13
2018-09-19T00:02:40.528Z,91.51
2018-09-19T00:03:40.605Z,91.13
2018-09-19T00:04:40.657Z,91.60
2018-09-19T00:05:40.718Z,90.83
2018-09-19T00:06:40.779Z,90.73
2018-09-19T00:07:40.841Z,91.13
2018-09-19T00:08:40.903Z,90.83
2018-09-19T00:09:40.970Z,91.03
2018-09-19T00:10:41.029Z,91.22
2018-09-19T00:11:41.109Z,91.41
2018-09-19T00:12:41.157Z,91.56
2018-09-19T00:13:41.220Z,91.60
2018-09-19T00:14:41.281Z,91.66
2018-09-19T00:15:41.351Z,91.46
2018-09-19T00:16:41.407Z,91.36
2018-09-19T00:17:41.471Z,91.75
2018-09-19T00:18:41.535Z,91.85
2018-09-19T00:19:41.598Z,91.94
2018-09-19T00:20:41.662Z,92.04
2018-09-19T00:21:41.722Z,92.52
2018-09-19T00:22:41.785Z,93.00
2018-09-19T00:23:41.848Z,92.67
2018-09-19T00:24:41.915Z,92.81
2018-09-19T00:25:41.974Z,93.00
2018-09-19T00:26:42.039Z,92.71
2018-09-19T00:27:42.099Z,92.71
2018-09-19T00:28:42.162Z,92.61
2018-09-19T00:29:42.283Z,93.58
2018-09-19T00:30:42.289Z,93.68
2018-09-19T00:31:42.350Z,94.49
2018-09-19T00:32:42.415Z,93.91
2018-09-19T00:33:42.477Z,93.63
2018-09-19T00:34:42.547Z,93.96
2018-09-19T00:35:42.604Z,93.96
2018-09-19T00:36:42.670Z,93.34
2018-09-19T00:37:42.728Z,93.77
2018-09-19T00:38:42.790Z,93.10
2018-09-19T00:39:42.854Z,93.82
2018-09-19T00:40:42.915Z,93.82
2018-09-19T00:41:42.982Z,94.59
2018-09-19T00:42:43.043Z,94.68
2018-09-19T00:43:43.104Z,95.26
2018-09-19T00:44:43.256Z,95.75
2018-09-19T00:45:43.231Z,95.26
2018-09-19T00:46:43.292Z,94.68
2018-09-19T00:47:43.354Z,94.59
2018-09-19T00:48:43.419Z,94.40
2018-09-19T00:49:43.479Z,94.30
2018-09-19T00:50:43.541Z,94.73
2018-09-19T00:51:43.606Z,94.11
2018-09-19T00:52:43.669Z,94.49
2018-09-19T00:53:43.733Z,94.30
2018-09-19T00:54:43.792Z,94.21
2018-09-19T00:55:43.857Z,94.88
2018-09-19T00:56:44.067Z,95.17
2018-09-19T00:57:43.980Z,94.98
2018-09-19T00:58:44.043Z,94.59
2018-09-19T00:59:44.105Z,94.98
2018-09-19T01:00:44.171Z,95.36
2018-09-19T01:01:44.232Z,95.45
2018-09-19T01:02:44.292Z,95.26
2018-09-19T01:03:44.355Z,95.65
2018-09-19T01:04:44.418Z,95.07
2018-09-19T01:05:44.483Z,95.17
2018-09-19T01:06:44.546Z,95.98
2018-09-19T01:07:44.605Z,95.50
2018-09-19T01:08:44.670Z,95.94
2018-09-19T01:09:44.731Z,95.79
2018-09-19T01:10:44.796Z,95.89
2018-09-19T01:11:44.857Z,95.89
2018-09-19T01:12:44.918Z,95.79
2018-09-19T01:13:44.982Z,96.17
2018-09-19T01:14:45.044Z,95.79
2018-09-19T01:15:45.108Z,96.27
2018-09-19T01:16:45.169Z,95.89
2018-09-19T01:17:45.232Z,96.47
2018-09-19T01:18:45.294Z,96.37
2018-09-19T01:19:45.356Z,96.37
2018-09-19T01:20:45.418Z,95.79
2018-09-19T01:21:45.480Z,96.56
2018-09-19T01:22:45.542Z,95.89
2018-09-19T01:23:45.605Z,96.08
2018-09-19T01:24:45.667Z,96.37
2018-09-19T01:25:45.732Z,96.56
2018-09-19T01:26:45.792Z,96.56
2018-09-19T01:27:45.856Z,97.04
2018-09-19T01:28:45.916Z,96.27
2018-09-19T01:29:45.980Z,97.04
2018-09-19T01:30:46.041Z,96.37
2018-09-19T01:31:46.104Z,96.17
2018-09-19T01:32:46.168Z,96.17
2018-09-19T01:33:46.231Z,95.89
2018-09-19T01:34:46.291Z,96.47
2018-09-19T01:35:46.353Z,95.98
2018-09-19T01:36:46.415Z,96.47
2018-09-19T01:37:46.480Z,96.17
2018-09-19T01:38:46.541Z,96.37
2018-09-19T01:39:46.605Z,96.47
2018-09-19T01:40:46.665Z,96.56
2018-09-19T01:41:46.728Z,96.27
2018-09-19T01:42:46.790Z,96.27
2018-09-19T01:43:46.853Z,96.85
2018-09-19T01:44:46.915Z,97.24
2018-09-19T01:45:46.978Z,97.42
2018-09-19T01:46:47.039Z,97.42
2018-09-19T01:47:47.101Z,97.24
2018-09-19T01:48:47.163Z,97.04
2018-09-19T01:49:47.225Z,97.38
2018-09-19T01:50:47.303Z,97.28
2018-09-19T01:51:47.357Z,98.24
2018-09-19T01:52:47.419Z,98.14
2018-09-19T01:53:47.475Z,97.96
2018-09-19T01:54:47.537Z,97.86
2018-09-19T01:55:47.599Z,98.14
2018-09-19T01:56:47.662Z,98.53
2018-09-19T01:57:47.726Z,98.24
2018-09-19T01:58:47.785Z,98.43
2018-09-19T01:59:47.857Z,98.24
2018-09-19T02:00:47.915Z,98.53
2018-09-19T02:01:47.972Z,98.72
2018-09-19T02:02:48.034Z,98.24
2018-09-19T02:03:48.096Z,98.38
2018-09-19T02:04:48.159Z,98.34
2018-09-19T02:05:48.222Z,98.63
2018-09-19T02:06:48.295Z,99.25
2018-09-19T02:07:48.346Z,98.86
2018-09-19T02:08:48.407Z,99.15
2018-09-19T02:09:48.471Z,98.96
2018-09-19T02:10:48.531Z,99.54
2018-09-19T02:11:48.594Z,99.54
2018-09-19T02:12:48.655Z,98.77
2018-09-19T02:13:48.727Z,98.86
2018-09-19T02:14:48.779Z,99.25
2018-09-19T02:15:48.842Z,99.44
2018-09-19T02:16:48.903Z,99.44
2018-09-19T02:17:48.966Z,99.82
2018-09-19T02:18:49.027Z,99.92
2018-09-19T02:19:49.090Z,99.73
2018-09-19T02:20:49.151Z,99.73
2018-09-19T02:21:49.213Z,99.99
2018-09-19T02:22:49.274Z,99.99
2018-09-19T02:23:49.336Z,99.82
2018-09-19T02:24:49.397Z,99.99
2018-09-19T02:25:49.460Z,99.99
2018-09-19T02:26:49.521Z,99.99
2018-09-19T02:27:49.584Z,99.99
2018-09-19T02:28:49.650Z,99.99
2018-09-19T02:29:49.707Z,99.99
2018-09-19T02:30:49.772Z,99.99
2018-09-19T02:31:49.834Z,99.99
2018-09-19T02:32:49.897Z,99.99
2018-09-19T02:33:49.956Z,99.99
2018-09-19T02:34:50.018Z,99.99
2018-09-19T02:35:50.079Z,99.99
2018-09-19T02:36:50.143Z,99.99
2018-09-19T02:37:50.204Z,99.99
2018-09-19T02:38:50.264Z,99.99
2018-09-19T02:39:50.325Z,99.99
2018-09-19T02:40:50.388Z,99.99
2018-09-19T02:41:50.450Z,99.99
2018-09-19T02:42:50.525Z,99.99
2018-09-19T02:43:50.582Z,99.99
2018-09-19T02:44:50.642Z,99.99
2018-09-19T02:45:50.712Z,99.99
2018-09-19T02:46:50.761Z,99.99
2018-09-19T02:47:50.822Z,99.99
2018-09-19T02:48:50.882Z,99.99
2018-09-19T02:49:50.946Z,99.99
2018-09-19T02:50:51.011Z,99.99
2018-09-19T02:51:51.066Z,99.99
2018-09-19T02:52:51.130Z,99.99
2018-09-19T02:53:51.199Z,99.99
2018-09-19T02:54:51.251Z,99.99
2018-09-19T02:55:51.316Z,99.99
2018-09-19T02:56:51.375Z,99.99
2018-09-19T02:57:51.441Z,99.99
2018-09-19T02:58:51.498Z,99.99
2018-09-19T02:59:51.563Z,99.99
2018-09-19T03:00:51.626Z,99.99
2018-09-19T03:01:51.687Z,99.99
2018-09-19T03:02:51.745Z,99.99
2018-09-19T03:03:51.809Z,99.99
2018-09-19T03:04:51.868Z,99.99
2018-09-19T03:05:51.930Z,99.99
2018-09-19T03:06:51.991Z,99.99
2018-09-19T03:07:52.057Z,99.99
2018-09-19T03:08:52.116Z,99.99
2018-09-19T03:09:52.181Z,99.99
2018-09-19T03:10:52.237Z,99.99
2018-09-19T03:11:52.299Z,99.99
2018-09-19T03:12:52.361Z,99.99
2018-09-19T03:13:52.425Z,99.99
2018-09-19T03:14:52.491Z,99.99
2018-09-19T03:15:52.547Z,99.99
2018-09-19T03:16:52.669Z,99.99
2018-09-19T03:17:52.673Z,99.99
2018-09-19T03:18:52.733Z,99.99
2018-09-19T03:19:52.793Z,99.99
2018-09-19T03:20:52.861Z,99.99
2018-09-19T03:21:52.916Z,99.99
2018-09-19T03:22:52.976Z,99.99
2018-09-19T03:23:53.039Z,99.99
2018-09-19T03:24:53.434Z,99.99
2018-09-19T03:25:53.161Z,99.99
2018-09-19T03:26:53.223Z,99.99
2018-09-19T03:27:53.292Z,99.99
2018-09-19T03:28:53.347Z,99.99
2018-09-19T03:29:53.418Z,99.99
2018-09-19T03:30:53.469Z,99.99
2018-09-19T03:31:53.555Z,99.99
2018-09-19T03:32:53.595Z,99.99
2018-09-19T03:33:53.655Z,99.99
2018-09-19T03:34:53.729Z,99.99
2018-09-19T03:35:53.777Z,99.99
2018-09-19T03:36:53.841Z,99.99
2018-09-19T03:37:53.902Z,99.99
2018-09-19T03:38:53.965Z,99.99
2018-09-19T03:39:54.023Z,99.99
2018-09-19T03:40:54.083Z,99.99
2018-09-19T03:41:54.152Z,99.99
2018-09-19T03:42:54.206Z,99.99
2018-09-19T03:43:54.268Z,99.99
2018-09-19T03:44:54.332Z,99.99
2018-09-19T03:45:54.390Z,99.99
2018-09-19T03:46:54.475Z,99.99
2018-09-19T03:47:54.529Z,99.99
2018-09-19T03:48:54.617Z,99.99
2018-09-19T03:49:54.641Z,99.99
2018-09-19T03:50:54.697Z,99.99
2018-09-19T03:51:54.760Z,99.99
2018-09-19T03:52:54.829Z,99.99
2018-09-19T03:53:54.891Z,99.99
2018-09-19T03:54:54.941Z,99.99
2018-09-19T03:55:55.013Z,99.99
2018-09-19T03:56:55.076Z,99.99
2018-09-19T03:57:55.129Z,99.99
2018-09-19T03:58:55.189Z,99.99
2018-09-19T03:59:55.250Z,99.99
2018-09-19T04:00:55.311Z,99.99
2018-09-19T04:01:55.374Z,99.99
2018-09-19T04:02:55.434Z,99.99
2018-09-19T04:03:55.496Z,99.99
2018-09-19T04:04:55.579Z,99.99
2018-09-19T04:05:55.619Z,99.99
2018-09-19T04:06:55.679Z,99.99
2018-09-19T04:07:55.742Z,99.99
2018-09-19T04:08:55.806Z,99.99
2018-09-19T04:09:55.866Z,99.99
2018-09-19T04:10:55.926Z,99.99
2018-09-19T04:11:55.985Z,99.99
2018-09-19T04:12:56.049Z,99.99
2018-09-19T04:13:56.110Z,99.99
2018-09-19T04:14:56.170Z,99.99
2018-09-19T04:15:56.232Z,99.99
2018-09-19T04:16:56.293Z,99.99
2018-09-19T04:17:56.390Z,99.99
2018-09-19T04:18:56.422Z,99.99
2018-09-19T04:19:56.477Z,99.99
2018-09-19T04:20:56.537Z,99.99
2018-09-19T04:22:54.085Z,99.99
2018-09-19T04:23:54.145Z,99.99
2018-09-19T04:24:54.205Z,99.99
2018-09-19T04:25:54.265Z,99.99
2018-09-19T04:26:54.327Z,99.99
2018-09-19T04:27:54.387Z,99.99
2018-09-19T04:28:54.448Z,99.99
2018-09-19T04:29:54.511Z,99.99
2018-09-19T04:30:54.573Z,99.99
2018-09-19T04:31:54.671Z,99.99
2018-09-19T04:32:54.698Z,99.99
2018-09-19T04:33:54.759Z,99.99
2018-09-19T04:34:54.816Z,99.99
2018-09-19T04:35:54.876Z,99.99
2018-09-19T04:36:54.938Z,99.99
2018-09-19T04:37:55.008Z,99.99
2018-09-19T04:38:55.061Z,99.99
2018-09-19T04:39:55.120Z,99.99
2018-09-19T04:40:55.194Z,99.99
2018-09-19T04:41:55.245Z,99.99
2018-09-19T04:42:55.305Z,99.99
2018-09-19T04:43:55.366Z,99.99
2018-09-19T04:44:55.452Z,99.99
2018-09-19T04:45:55.487Z,99.99
2018-09-19T04:46:55.549Z,99.99
2018-09-19T04:47:55.616Z,99.99
2018-09-19T04:48:55.670Z,99.99
2018-09-19T04:49:55.733Z,99.99
2018-09-19T04:50:55.792Z,99.99
2018-09-19T04:51:55.855Z,99.99
2018-09-19T04:52:55.915Z,99.99
2018-09-19T04:53:55.976Z,99.99
2018-09-19T04:54:56.071Z,99.99
2018-09-19T04:55:56.099Z,99.99
2018-09-19T04:56:56.159Z,99.99
2018-09-19T04:57:56.242Z,99.99
2018-09-19T04:58:56.283Z,99.99
2018-09-19T04:59:56.342Z,99.99
2018-09-19T05:00:56.404Z,99.99
2018-09-19T05:01:56.466Z,99.99
2018-09-19T05:02:56.525Z,99.99
2018-09-19T05:03:56.588Z,99.99
2018-09-19T05:04:56.648Z,99.99
2018-09-19T05:05:56.710Z,99.99
2018-09-19T05:06:56.772Z,99.99
2018-09-19T05:07:56.843Z,99.99
2018-09-19T05:08:56.893Z,99.99
2018-09-19T05:09:56.954Z,99.99
2018-09-19T05:10:57.014Z,99.99
2018-09-19T05:11:57.074Z,99.99
2018-09-19T05:12:57.135Z,99.99
2018-09-19T05:13:57.199Z,99.99
2018-09-19T05:14:57.258Z,99.99
2018-09-19T05:15:57.876Z,99.99
2018-09-19T05:16:57.380Z,99.99
2018-09-19T05:17:57.440Z,99.99
2018-09-19T05:18:57.530Z,99.99
2018-09-19T05:19:57.561Z,99.99
2018-09-19T05:20:58.101Z,99.99
2018-09-19T05:21:57.692Z,99.99
2018-09-19T05:22:57.746Z,99.99
2018-09-19T05:23:57.810Z,99.99
2018-09-19T05:24:57.880Z,99.99
2018-09-19T05:25:57.963Z,99.99
2018-09-19T05:26:57.989Z,99.99
2018-09-19T05:27:58.050Z,99.99
2018-09-19T05:28:58.120Z,99.99
2018-09-19T05:29:58.177Z,99.99
2018-09-19T05:30:58.235Z,99.99
2018-09-19T05:31:58.296Z,99.99
2018-09-19T05:32:58.354Z,99.99
2018-09-19T05:33:58.413Z,99.99
2018-09-19T05:34:58.477Z,99.99
2018-09-19T05:35:58.537Z,99.99
2018-09-19T05:36:58.597Z,99.99
2018-09-19T05:37:58.659Z,99.99
2018-09-19T05:38:58.718Z,99.99
2018-09-19T05:39:58.800Z,99.99
2018-09-19T05:40:58.843Z,99.99
2018-09-19T05:41:58.902Z,99.99
2018-09-19T05:42:58.970Z,99.99
2018-09-19T05:43:59.023Z,99.99
2018-09-19T05:44:59.086Z,99.99
2018-09-19T05:45:59.146Z,99.99
2018-09-19T05:46:59.205Z,99.99
2018-09-19T05:47:59.267Z,99.99
2018-09-19T05:48:59.330Z,99.99
2018-09-19T05:49:59.387Z,99.99
2018-09-19T05:50:59.449Z,99.99
2018-09-19T05:51:59.510Z,99.99
2018-09-19T05:52:59.572Z,99.99
2018-09-19T05:53:59.642Z,99.99
2018-09-19T05:54:59.692Z,99.99
2018-09-19T05:55:59.756Z,99.99
2018-09-19T05:56:59.817Z,99.99
2018-09-19T05:57:59.876Z,99.99
2018-09-19T05:58:59.936Z,99.99
2018-09-19T05:59:59.998Z,99.99
2018-09-19T06:01:00.060Z,99.99
2018-09-19T06:02:00.122Z,99.99
2018-09-19T06:03:00.181Z,99.99
2018-09-19T06:04:42.683Z,99.99
2018-09-19T06:05:42.743Z,99.99
2018-09-19T06:07:50.317Z,99.99
2018-09-19T06:08:50.378Z,99.99
2018-09-19T06:09:50.439Z,99.99
2018-09-19T06:10:50.500Z,99.99
2018-09-19T06:11:50.561Z,99.99
2018-09-19T06:12:51.030Z,99.99
2018-09-19T06:13:51.206Z,99.99
2018-09-19T06:14:51.752Z,99.99
2018-09-19T06:15:50.815Z,99.99
2018-09-19T06:16:51.189Z,99.99
2018-09-19T06:17:50.927Z,99.99
2018-09-19T06:18:51.019Z,99.99
2018-09-19T06:19:51.056Z,99.99
2018-09-19T06:20:51.110Z,99.99
2018-09-19T06:21:51.172Z,99.99
2018-09-19T06:22:51.232Z,99.99
2018-09-19T06:23:51.294Z,99.99
2018-09-19T06:24:51.356Z,99.99
2018-09-19T06:25:51.433Z,99.99
2018-09-19T06:26:51.518Z,99.99
2018-09-19T06:27:51.539Z,99.99
2018-09-19T06:28:51.598Z,99.99
2018-09-19T06:29:51.663Z,99.99
2018-09-19T06:30:51.723Z,99.99
2018-09-19T06:31:51.796Z,99.99
2018-09-19T06:32:51.901Z,99.99
2018-09-19T06:34:59.437Z,99.99
2018-09-19T06:35:59.516Z,99.99
2018-09-19T06:36:59.605Z,99.99
2018-09-19T06:37:59.604Z,99.99
2018-09-19T06:38:59.664Z,99.99
2018-09-19T06:39:59.751Z,99.99
2018-09-19T06:40:59.922Z,99.99
2018-09-19T06:41:59.848Z,99.99
2018-09-19T06:42:59.913Z,99.99
2018-09-19T06:43:59.969Z,99.99
2018-09-19T06:45:00.032Z,99.99
2018-09-19T06:46:47.615Z,99.99
2018-09-19T06:47:47.609Z,99.99
2018-09-19T06:48:47.669Z,99.99
2018-09-19T06:49:47.735Z,99.99
2018-09-19T06:50:47.793Z,99.99
2018-09-19T06:52:30.314Z,99.99
2018-09-19T06:53:30.355Z,99.99
2018-09-19T06:54:30.418Z,99.99
2018-09-19T06:55:30.478Z,99.99
2018-09-19T06:56:30.540Z,99.99
2018-09-19T06:57:30.603Z,99.99
2018-09-19T06:58:30.663Z,99.99
2018-09-19T06:59:30.878Z,99.99
2018-09-19T07:00:30.785Z,99.99
2018-09-19T07:01:30.848Z,99.99
2018-09-19T07:02:30.910Z,99.99
2018-09-19T07:03:30.980Z,99.99
2018-09-19T07:04:31.284Z,99.99
2018-09-19T07:05:31.099Z,99.99
2018-09-19T07:06:31.173Z,99.99
2018-09-19T07:07:31.219Z,99.99
2018-09-19T07:08:31.280Z,99.99
2018-09-19T07:09:31.342Z,99.99
2018-09-19T07:10:31.461Z,99.99
2018-09-19T07:11:31.467Z,99.99
2018-09-19T07:12:31.538Z,99.99
2018-09-19T07:13:31.590Z,99.99
2018-09-19T07:14:31.653Z,99.99
2018-09-19T07:15:31.714Z,99.99
2018-09-19T07:16:31.775Z,99.99
2018-09-19T07:17:31.836Z,99.99
2018-09-19T07:18:31.899Z,99.99
2018-09-19T07:19:31.963Z,99.99
2018-09-19T07:20:32.029Z,99.99
2018-09-19T07:21:32.095Z,99.99
2018-09-19T07:22:32.153Z,99.99
2018-09-19T07:23:32.211Z,99.99
2018-09-19T07:24:33.020Z,99.99
2018-09-19T07:25:32.985Z,99.99
2018-09-19T07:26:32.397Z,99.99
2018-09-19T07:27:32.460Z,99.99
2018-09-19T07:28:32.527Z,99.99
2018-09-19T07:29:32.583Z,99.99
2018-09-19T07:30:32.652Z,99.99
2018-09-19T07:31:32.709Z,99.99
2018-09-19T07:32:32.770Z,99.99
2018-09-19T07:33:32.832Z,99.99
2018-09-19T07:34:32.895Z,99.99
2018-09-19T07:35:32.958Z,99.99
2018-09-19T07:36:33.052Z,99.99
2018-09-19T07:37:33.147Z,99.99
2018-09-19T07:38:33.147Z,99.99
2018-09-19T07:39:33.207Z,99.99
2018-09-19T07:40:33.476Z,99.99
2018-09-19T07:41:33.333Z,99.99
2018-09-19T07:42:33.511Z,99.99
2018-09-19T07:43:33.458Z,99.99
2018-09-19T07:44:33.856Z,99.99
2018-09-19T07:45:33.585Z,99.99
2018-09-19T07:46:33.672Z,99.99
2018-09-19T07:47:33.712Z,99.99
2018-09-19T07:48:33.771Z,99.99
2018-09-19T07:49:34.509Z,99.99
2018-09-19T07:50:33.899Z,99.99
2018-09-19T07:51:33.962Z,99.99
2018-09-19T07:52:34.024Z,99.99
2018-09-19T07:53:34.088Z,99.99
2018-09-19T07:54:34.200Z,99.99
2018-09-19T07:55:34.215Z,99.99
2018-09-19T07:56:34.278Z,99.99
2018-09-19T07:57:34.340Z,99.99
2018-09-19T07:58:34.404Z,99.99
2018-09-19T07:59:34.468Z,99.99
2018-09-19T08:00:34.614Z,99.99
2018-09-19T08:01:34.613Z,99.99
2018-09-19T08:02:34.684Z,99.99
2018-09-19T08:03:34.722Z,99.99
2018-09-19T08:04:34.784Z,99.64
2018-09-19T08:05:34.853Z,99.73
2018-09-19T08:06:34.911Z,99.98
2018-09-19T08:07:34.976Z,99.30
2018-09-19T08:08:35.036Z,98.63
2018-09-19T08:09:35.106Z,98.82
2018-09-19T08:10:35.164Z,98.54
2018-09-19T08:11:35.229Z,98.05
2018-09-19T08:12:35.294Z,98.14
2018-09-19T08:13:35.356Z,98.72
2018-09-19T08:14:35.423Z,98.72
2018-09-19T08:15:35.491Z,98.97
2018-09-19T08:16:35.552Z,98.97
2018-09-19T08:17:35.614Z,98.00
2018-09-19T08:18:35.676Z,98.39
2018-09-19T08:19:35.740Z,98.19
2018-09-19T08:20:35.805Z,97.81
2018-09-19T08:21:35.880Z,97.72
2018-09-19T08:22:35.969Z,97.72
2018-09-19T08:23:35.995Z,97.47
2018-09-19T08:24:36.058Z,97.76
2018-09-19T08:25:36.121Z,97.19
2018-09-19T08:26:36.186Z,97.38
2018-09-19T08:27:36.252Z,97.38
2018-09-19T08:28:36.314Z,97.28
2018-09-19T08:29:36.380Z,97.76
2018-09-19T08:30:36.451Z,97.28
2018-09-19T08:31:36.507Z,96.89
2018-09-19T08:32:36.571Z,97.14
2018-09-19T08:33:36.635Z,96.56
2018-09-19T08:34:36.701Z,95.79
2018-09-19T08:35:36.767Z,95.36
2018-09-19T08:36:36.828Z,95.64
2018-09-19T08:37:36.892Z,94.96
2018-09-19T08:38:36.958Z,94.58
2018-09-19T08:39:37.023Z,94.58
2018-09-19T08:40:37.093Z,94.43
2018-09-19T08:41:37.154Z,94.73
2018-09-19T08:42:37.221Z,94.15
2018-09-19T08:43:37.279Z,94.63
2018-09-19T08:44:37.689Z,93.85
2018-09-19T08:45:37.417Z,93.52
2018-09-19T08:46:37.473Z,92.46
2018-09-19T08:47:37.540Z,91.63
2018-09-19T08:48:38.143Z,91.19
2018-09-19T08:49:37.668Z,90.13
2018-09-19T08:50:37.809Z,89.55
2018-09-19T08:51:37.799Z,88.82
2018-09-19T08:52:37.866Z,89.15
2018-09-19T08:53:37.941Z,88.48
2018-09-19T08:54:38.000Z,88.48
2018-09-19T08:55:38.064Z,87.71
2018-09-19T08:56:38.120Z,87.23
2018-09-19T08:57:38.188Z,87.37
2018-09-19T08:58:38.249Z,87.18
2018-09-19T08:59:38.322Z,86.93
2018-09-19T09:00:38.381Z,86.74
2018-09-19T09:01:38.462Z,86.93
2018-09-19T09:02:39.031Z,86.20
2018-09-19T09:03:38.573Z,86.16
2018-09-19T09:04:39.258Z,86.59
2018-09-19T09:05:38.705Z,85.82
2018-09-19T09:06:38.776Z,85.42
2018-09-19T09:07:38.834Z,84.84
2018-09-19T09:08:38.901Z,84.75
2018-09-19T09:09:38.963Z,84.66
2018-09-19T09:10:39.030Z,84.46
2018-09-19T09:11:39.093Z,84.08
2018-09-19T09:12:39.202Z,84.11
2018-09-19T09:13:39.229Z,83.83
2018-09-19T09:14:39.293Z,82.86
2018-09-19T09:15:40.117Z,82.95
2018-09-19T09:16:39.418Z,82.37
2018-09-19T09:17:39.486Z,82.18
2018-09-19T09:18:39.548Z,82.18
2018-09-19T09:19:39.614Z,82.08
2018-09-19T09:20:39.695Z,81.54
2018-09-19T09:21:39.749Z,80.96
2018-09-19T09:22:39.813Z,81.79
2018-09-19T09:23:39.876Z,81.50
2018-09-19T09:24:39.962Z,81.89
2018-09-19T09:25:40.006Z,80.57
2018-09-19T09:26:40.119Z,80.19
2018-09-19T09:27:40.138Z,79.99
2018-09-19T09:28:40.205Z,79.70
2018-09-19T09:29:40.289Z,79.80
2018-09-19T09:30:40.333Z,79.55
2018-09-19T09:31:40.401Z,79.16
2018-09-19T09:32:40.476Z,79.74
2018-09-19T09:33:40.534Z,79.50
2018-09-19T09:34:40.598Z,78.58
2018-09-19T09:35:40.701Z,78.19
2018-09-19T09:36:40.749Z,77.70
2018-09-19T09:37:40.794Z,77.61
2018-09-19T09:38:40.859Z,78.38
2018-09-19T09:39:40.934Z,78.00
2018-09-19T09:40:40.994Z,77.84
2018-09-19T09:41:41.058Z,76.87
2018-09-19T09:42:41.124Z,77.12
2018-09-19T09:43:41.191Z,77.03
2018-09-19T09:44:41.261Z,77.16
2018-09-19T09:45:42.050Z,76.29
2018-09-19T09:46:41.783Z,76.00
2018-09-19T09:47:41.454Z,76.39
2018-09-19T09:48:41.519Z,75.84
2018-09-19T09:49:41.589Z,75.84
2018-09-19T09:50:41.661Z,75.36
2018-09-19T09:51:41.719Z,75.42
2018-09-19T09:52:41.783Z,75.74
2018-09-19T09:53:41.849Z,75.51
2018-09-19T09:54:41.914Z,75.51
2018-09-19T09:55:41.988Z,75.90
2018-09-19T09:56:42.050Z,75.74
2018-09-19T09:57:42.112Z,74.87
2018-09-19T09:58:42.180Z,75.26
2018-09-19T09:59:42.246Z,75.45
2018-09-19T10:00:42.313Z,75.61
2018-09-19T10:01:42.381Z,76.00
2018-09-19T10:02:42.444Z,75.71
2018-09-19T10:03:42.511Z,75.81
2018-09-19T10:04:42.576Z,75.81
2018-09-19T10:05:42.645Z,75.71
2018-09-19T10:06:42.960Z,75.23
2018-09-19T10:07:42.776Z,75.07
2018-09-19T10:08:42.842Z,74.58
2018-09-19T10:09:42.910Z,73.80
2018-09-19T10:10:42.974Z,73.42
2018-09-19T10:11:43.298Z,74.00
2018-09-19T10:12:43.107Z,74.49
2018-09-19T10:13:43.240Z,74.58
2018-09-19T10:14:43.239Z,74.19
2018-09-19T10:15:43.305Z,74.77
2018-09-19T10:16:43.374Z,74.49
2018-09-19T10:17:43.441Z,74.04
2018-09-19T10:18:43.504Z,73.22
2018-09-19T10:19:43.571Z,73.26
2018-09-19T10:20:43.640Z,72.00
2018-09-19T10:21:44.044Z,71.90
2018-09-19T10:22:43.771Z,72.49
2018-09-19T10:23:43.836Z,72.19
2018-09-19T10:24:43.903Z,71.84
2018-09-19T10:25:44.021Z,71.16
2018-09-19T10:26:44.036Z,70.57
2018-09-19T10:27:44.104Z,70.67
2018-09-19T10:28:44.168Z,70.77
2018-09-19T10:29:44.264Z,70.77
2018-09-19T10:30:44.306Z,71.32
2018-09-19T10:31:44.369Z,71.36
2018-09-19T10:32:44.435Z,71.26
2018-09-19T10:33:44.503Z,71.26
2018-09-19T10:34:44.573Z,70.32
2018-09-19T10:35:44.644Z,70.12
2018-09-19T10:36:44.700Z,69.74
2018-09-19T10:37:44.769Z,69.84
2018-09-19T10:38:44.838Z,69.93
2018-09-19T10:39:44.902Z,69.64
2018-09-19T10:40:44.969Z,69.84
2018-09-19T10:41:45.039Z,69.25
2018-09-19T10:42:45.114Z,69.35
2018-09-19T10:43:45.201Z,69.45
2018-09-19T10:44:45.235Z,69.35
2018-09-19T10:45:45.303Z,69.70
2018-09-19T10:46:48.378Z,69.70
2018-09-19T10:47:45.439Z,69.35
2018-09-19T10:48:45.504Z,68.41
2018-09-19T10:49:45.571Z,67.54
2018-09-19T10:50:45.640Z,67.83
2018-09-19T10:51:45.708Z,67.28
2018-09-19T10:52:45.774Z,66.05
2018-09-19T10:53:45.843Z,65.98
2018-09-19T10:54:45.912Z,64.17
2018-09-19T10:55:45.984Z,62.83
2018-09-19T10:56:46.058Z,61.30
2018-09-19T10:57:46.140Z,60.85
2018-09-19T10:58:46.198Z,59.90
2018-09-19T10:59:46.256Z,58.73
2018-09-19T11:00:46.326Z,58.73
2018-09-19T11:01:46.394Z,58.63
2018-09-19T11:02:46.791Z,58.53
2018-09-19T11:03:46.534Z,58.34
2018-09-19T11:04:46.603Z,56.93
2018-09-19T11:05:46.675Z,56.54
2018-09-19T11:06:46.743Z,55.88
2018-09-19T11:07:47.446Z,54.35
2018-09-19T11:08:46.882Z,54.54
2018-09-19T11:09:46.954Z,54.69
2018-09-19T11:10:47.025Z,55.76
2018-09-19T11:11:47.102Z,55.10
2018-09-19T11:12:47.180Z,53.37
2018-09-19T11:13:47.236Z,53.59
2018-09-19T11:14:47.308Z,54.13
2018-09-19T11:15:47.380Z,54.22
2018-09-19T11:16:47.452Z,54.79
2018-09-19T11:17:47.521Z,56.02
2018-09-19T11:18:47.594Z,55.54
2018-09-19T11:19:47.664Z,56.38
2018-09-19T11:20:47.734Z,55.57
2018-09-19T11:21:47.806Z,54.49
2018-09-19T11:22:47.877Z,54.39
2018-09-19T11:23:47.950Z,54.42
2018-09-19T11:24:48.020Z,53.64
2018-09-19T11:25:48.093Z,53.61
2018-09-19T11:26:48.164Z,55.71
2018-09-19T11:27:48.239Z,54.32
2018-09-19T11:28:48.306Z,53.76
2018-09-19T11:29:48.378Z,53.08
2018-09-19T11:30:48.450Z,52.27
2018-09-19T11:31:48.528Z,54.00
2018-09-19T11:32:48.843Z,53.64
2018-09-19T11:33:48.664Z,52.98
2018-09-19T11:34:48.736Z,52.42
2018-09-19T11:35:48.808Z,51.66
2018-09-19T11:36:48.879Z,50.98
2018-09-19T11:37:48.951Z,51.17
2018-09-19T11:38:49.023Z,50.29
2018-09-19T11:39:49.095Z,50.59
2018-09-19T11:40:49.167Z,51.32
2018-09-19T11:41:49.240Z,52.66
2018-09-19T11:42:49.317Z,51.73
2018-09-19T11:43:49.383Z,50.39
2018-09-19T11:44:49.454Z,49.53
2018-09-19T11:45:49.528Z,48.97
2018-09-19T11:46:49.599Z,49.43
2018-09-19T11:47:49.671Z,49.31
2018-09-19T11:48:49.745Z,49.14
2018-09-19T11:49:49.816Z,48.77
2018-09-19T11:50:49.887Z,48.85
2018-09-19T11:51:49.959Z,49.77
2018-09-19T11:52:50.030Z,51.42
2018-09-19T11:53:50.106Z,50.83
2018-09-19T11:54:52.799Z,51.39
2018-09-19T11:55:50.250Z,52.08
2018-09-19T11:57:32.769Z,50.54
2018-09-19T11:58:32.840Z,49.38
2018-09-19T11:59:32.912Z,47.47
2018-09-19T12:00:32.985Z,47.87
2018-09-19T12:01:33.063Z,48.70
2018-09-19T12:02:33.129Z,49.85
2018-09-19T12:03:33.200Z,50.42
2018-09-19T12:04:33.272Z,49.48
2018-09-19T12:05:33.344Z,48.90
2018-09-19T12:06:33.415Z,49.60
2018-09-19T12:07:33.488Z,49.02
2018-09-19T12:08:33.559Z,49.36
2018-09-19T12:09:33.638Z,51.34
2018-09-19T12:10:33.703Z,52.25
2018-09-19T12:11:33.775Z,50.63
2018-09-19T12:12:33.846Z,49.19
2018-09-19T12:13:33.918Z,48.72
2018-09-19T12:14:33.990Z,48.43
2018-09-19T12:15:34.064Z,47.94
2018-09-19T12:16:34.134Z,48.04
2018-09-19T12:17:34.205Z,49.09
2018-09-19T12:18:34.694Z,50.22
2018-09-19T12:19:34.394Z,51.20
2018-09-19T12:20:34.421Z,50.54
2018-09-19T12:21:34.490Z,50.90
2018-09-19T12:22:34.562Z,49.97
2018-09-19T12:23:34.635Z,49.77
2018-09-19T12:24:34.713Z,49.31
2018-09-19T12:25:34.778Z,49.21
2018-09-19T12:26:34.887Z,48.63
2018-09-19T12:27:34.921Z,49.31
2018-09-19T12:28:34.993Z,50.17
2018-09-19T12:29:35.064Z,50.34
2018-09-19T12:30:35.136Z,51.00
2018-09-19T12:31:35.208Z,51.12
2018-09-19T12:32:35.281Z,50.54
2018-09-19T12:33:35.351Z,51.22
2018-09-19T12:34:35.421Z,51.59
2018-09-19T12:35:35.495Z,51.37
2018-09-19T12:36:35.570Z,53.85
2018-09-19T12:37:35.637Z,52.47
2018-09-19T12:38:36.078Z,52.17
2018-09-19T12:39:35.809Z,52.80
2018-09-19T12:40:35.852Z,54.05
2018-09-19T12:41:35.923Z,52.25
2018-09-19T12:42:35.998Z,52.80
2018-09-19T12:43:36.067Z,54.31
2018-09-19T12:44:36.137Z,55.41
2018-09-19T12:45:36.518Z,52.76
2018-09-19T12:46:36.277Z,52.25
2018-09-19T12:47:36.352Z,52.70
2018-09-19T12:48:36.421Z,54.05
2018-09-19T12:49:36.492Z,53.81
2018-09-19T12:50:36.564Z,53.58
2018-09-19T12:52:19.084Z,55.29
2018-09-19T12:53:19.167Z,55.38
2018-09-19T12:54:19.222Z,55.68
2018-09-19T12:55:19.293Z,56.23
2018-09-19T12:56:19.367Z,57.40
2018-09-19T12:57:19.432Z,57.89
2018-09-19T12:58:19.504Z,57.86
2018-09-19T12:59:19.575Z,58.15
2018-09-19T13:00:19.644Z,58.54